createdAt,value
2023-05-22T00:00:26.823Z,98876.30
2023-05-22T00:02:54.359Z,98874.02
2023-05-22T00:05:21.801Z,98875.69
2023-05-22T00:07:49.283Z,98878.98
2023-05-22T00:10:16.524Z,98879.17
2023-05-22T00:12:43.723Z,98877.48
2023-05-22T00:15:11.806Z,98875.95
2023-05-22T00:17:39.613Z,98877.53
2023-05-22T00:20:08.928Z,98875.09
2023-05-22T00:22:36.664Z,98877.04
2023-05-22T00:25:04.611Z,98871.85
2023-05-22T00:27:33.249Z,98870.23
2023-05-22T00:30:00.363Z,98873.94
2023-05-22T00:32:27.724Z,98875.82
2023-05-22T00:34:55.380Z,98876.15
2023-05-22T00:37:22.402Z,98874.67
2023-05-22T00:39:49.710Z,98876.86
2023-05-22T00:42:17.044Z,98875.73
2023-05-22T00:44:44.264Z,98876.94
2023-05-22T00:47:11.661Z,98870.23
2023-05-22T00:49:39.868Z,98877.33
2023-05-22T00:52:07.175Z,98872.61
2023-05-22T00:54:34.182Z,98869.02
2023-05-22T00:57:01.612Z,98867.30
2023-05-22T00:59:29.304Z,98868.84
2023-05-22T01:01:57.418Z,98870.98
2023-05-22T01:04:24.976Z,98874.07
2023-05-22T01:06:53.985Z,98868.98
2023-05-22T01:09:21.017Z,98868.83
2023-05-22T01:12:07.373Z,98864.29
2023-05-22T01:15:13.606Z,98864.27
2023-05-22T01:17:48.049Z,98867.02
2023-05-22T01:20:33.704Z,98864.25
2023-05-22T01:23:28.986Z,98862.44
2023-05-22T01:26:34.739Z,98862.33
2023-05-22T01:29:42.291Z,98864.69
2023-05-22T01:32:11.139Z,98864.98
2023-05-22T01:34:38.611Z,98865.96
2023-05-22T01:37:05.633Z,98866.95
2023-05-22T01:39:32.656Z,98862.80
2023-05-22T01:41:59.708Z,98867.34
2023-05-22T01:44:27.083Z,98865.42
2023-05-22T01:46:56.437Z,98867.64
2023-05-22T01:49:23.840Z,98863.89
2023-05-22T01:51:53.653Z,98864.16
2023-05-22T01:54:37.651Z,98864.66
2023-05-22T01:57:25.016Z,98865.35
2023-05-22T02:00:09.947Z,98867.00
2023-05-22T02:02:47.994Z,98869.73
2023-05-22T02:05:18.843Z,98866.69
2023-05-22T02:07:46.345Z,98863.95
2023-05-22T02:10:13.393Z,98867.30
2023-05-22T02:12:40.587Z,98869.02
2023-05-22T02:15:08.742Z,98868.84
2023-05-22T02:17:42.689Z,98865.90
2023-05-22T02:20:14.450Z,98870.45
2023-05-22T02:22:47.388Z,98871.54
2023-05-22T02:25:14.858Z,98870.20
2023-05-22T02:27:43.089Z,98869.79
2023-05-22T02:30:12.008Z,98872.80
2023-05-22T02:32:40.570Z,98872.45
2023-05-22T02:35:09.745Z,98877.60
2023-05-22T02:37:37.220Z,98880.17
2023-05-22T02:40:07.437Z,98879.75
2023-05-22T02:42:35.934Z,98879.30
2023-05-22T02:45:03.250Z,98881.89
2023-05-22T02:47:30.907Z,98881.79
2023-05-22T02:49:58.427Z,98881.25
2023-05-22T02:52:25.463Z,98879.17
2023-05-22T02:54:52.602Z,98879.46
2023-05-22T02:57:20.038Z,98878.45
2023-05-22T02:59:47.133Z,98880.27
2023-05-22T03:02:15.554Z,98883.06
2023-05-22T03:04:42.837Z,98886.34
2023-05-22T03:07:10.183Z,98890.51
2023-05-22T03:09:37.406Z,98888.10
2023-05-22T03:12:07.838Z,98891.10
2023-05-22T03:14:35.316Z,98891.73
2023-05-22T03:17:02.641Z,98892.13
2023-05-22T03:19:30.285Z,98885.73
2023-05-22T03:21:58.254Z,98888.13
2023-05-22T03:24:26.269Z,98888.33
2023-05-22T03:26:53.342Z,98887.05
2023-05-22T03:29:26.660Z,98886.98
2023-05-22T03:31:54.566Z,98885.14
2023-05-22T03:34:27.574Z,98880.34
2023-05-22T03:36:55.064Z,98883.54
2023-05-22T03:39:22.107Z,98876.28
2023-05-22T03:41:54.885Z,98872.53
2023-05-22T03:44:24.497Z,98871.75
2023-05-22T03:46:52.065Z,98870.19
2023-05-22T03:49:19.122Z,98872.58
2023-05-22T03:51:46.160Z,98872.17
2023-05-22T03:54:13.325Z,98871.99
2023-05-22T03:56:41.944Z,98875.79
2023-05-22T03:59:08.958Z,98879.55
2023-05-22T04:01:39.485Z,98881.68
2023-05-22T04:04:06.772Z,98882.48
2023-05-22T04:06:34.310Z,98878.78
2023-05-22T04:09:01.995Z,98879.60
2023-05-22T04:11:32.339Z,98875.02
2023-05-22T04:14:03.314Z,98873.20
2023-05-22T04:16:30.652Z,98878.98
2023-05-22T04:18:58.175Z,98878.75
2023-05-22T04:21:25.353Z,98878.86
2023-05-22T04:23:52.463Z,98878.08
2023-05-22T04:26:20.840Z,98875.05
2023-05-22T04:28:48.008Z,98872.72
2023-05-22T04:31:15.242Z,98873.75
2023-05-22T04:33:42.911Z,98874.52
2023-05-22T04:36:12.470Z,98872.88
2023-05-22T04:38:41.477Z,98872.71
2023-05-22T04:41:13.573Z,98869.09
2023-05-22T04:43:40.859Z,98866.00
2023-05-22T04:46:09.057Z,98867.86
2023-05-22T04:48:37.015Z,98870.83
2023-05-22T04:51:04.804Z,98867.27
2023-05-22T04:53:33.530Z,98863.48
2023-05-22T04:56:00.913Z,98863.83
2023-05-22T04:58:28.434Z,98863.89
2023-05-22T05:00:58.380Z,98865.18
2023-05-22T05:03:28.949Z,98862.46
2023-05-22T05:05:56.928Z,98861.77
2023-05-22T05:08:23.958Z,98863.17
2023-05-22T05:10:51.049Z,98863.27
2023-05-22T05:13:18.220Z,98867.95
2023-05-22T05:15:46.016Z,98869.70
2023-05-22T05:18:13.620Z,98867.45
2023-05-22T05:20:42.969Z,98867.55
2023-05-22T05:23:10.513Z,98867.47
2023-05-22T05:25:38.832Z,98869.76
2023-05-22T05:28:10.857Z,98865.52
2023-05-22T05:30:39.633Z,98863.79
2023-05-22T05:33:29.991Z,98864.62
2023-05-22T05:36:02.816Z,98868.02
2023-05-22T05:38:30.554Z,98867.77
2023-05-22T05:40:57.661Z,98868.98
2023-05-22T05:43:25.634Z,98866.78
2023-05-22T05:45:55.459Z,98866.79
2023-05-22T05:48:23.013Z,98867.21
2023-05-22T05:50:50.134Z,98868.88
2023-05-22T05:53:17.408Z,98865.16
2023-05-22T05:55:49.532Z,98857.17
2023-05-22T05:58:17.774Z,98857.17
2023-05-22T06:01:13.114Z,98858.11
2023-05-22T06:03:40.423Z,98853.52
2023-05-22T06:06:17.771Z,98850.91
2023-05-22T06:09:08.393Z,98850.17
2023-05-22T06:11:46.901Z,98851.50
2023-05-22T06:14:14.328Z,98845.30
2023-05-22T06:16:41.741Z,98849.95
2023-05-22T06:19:09.099Z,98847.91
2023-05-22T06:21:37.206Z,98843.81
2023-05-22T06:24:04.509Z,98843.45
2023-05-22T06:26:31.886Z,98842.88
2023-05-22T06:28:58.856Z,98842.54
2023-05-22T06:31:26.204Z,98845.34
2023-05-22T06:33:55.429Z,98842.17
2023-05-22T06:36:23.493Z,98840.05
2023-05-22T06:38:55.141Z,98839.07
2023-05-22T06:41:42.172Z,98837.88
2023-05-22T06:44:10.443Z,98836.73
2023-05-22T06:46:38.895Z,98839.57
2023-05-22T06:49:06.617Z,98831.34
2023-05-22T06:51:43.947Z,98832.05
2023-05-22T06:54:13.874Z,98831.09
2023-05-22T06:56:43.457Z,98825.21
2023-05-22T06:59:15.278Z,98819.16
2023-05-22T07:02:02.557Z,98822.71
2023-05-22T07:04:50.031Z,98819.61
2023-05-22T07:07:21.871Z,98818.52
2023-05-22T07:09:49.665Z,98816.68
2023-05-22T07:12:17.848Z,98808.77
2023-05-22T07:14:45.400Z,98807.02
2023-05-22T07:17:12.924Z,98809.75
2023-05-22T07:19:43.036Z,98811.97
2023-05-22T07:22:10.096Z,98810.42
2023-05-22T07:24:38.564Z,98809.66
2023-05-22T07:27:06.011Z,98808.89
2023-05-22T07:29:33.566Z,98805.89
2023-05-22T07:32:01.166Z,98809.10
2023-05-22T07:34:33.184Z,98807.73
2023-05-22T07:37:06.815Z,98808.67
2023-05-22T07:39:34.595Z,98808.68
2023-05-22T07:42:02.069Z,98809.41
2023-05-22T07:44:29.807Z,98807.23
2023-05-22T07:46:57.016Z,98809.85
2023-05-22T07:49:25.770Z,98805.58
2023-05-22T07:51:52.942Z,98801.92
2023-05-22T07:54:21.000Z,98808.25
2023-05-22T07:56:50.474Z,98802.37
2023-05-22T07:59:19.892Z,98803.67
2023-05-22T08:01:47.119Z,98804.21
2023-05-22T08:04:14.429Z,98808.70
2023-05-22T08:06:43.927Z,98804.56
2023-05-22T08:09:11.007Z,98803.40
2023-05-22T08:11:40.254Z,98802.86
2023-05-22T08:14:07.856Z,98800.86
2023-05-22T08:16:35.446Z,98799.94
2023-05-22T08:19:02.761Z,98799.35
2023-05-22T08:21:33.224Z,98797.27
2023-05-22T08:24:01.280Z,98792.58
2023-05-22T08:26:30.132Z,98790.79
2023-05-22T08:28:59.639Z,98786.87
2023-05-22T08:31:29.336Z,98782.48
2023-05-22T08:34:02.497Z,98780.69
2023-05-22T08:36:31.603Z,98774.17
2023-05-22T08:38:58.638Z,98776.59
2023-05-22T08:41:25.666Z,98768.87
2023-05-22T08:43:53.213Z,98768.80
2023-05-22T08:46:20.235Z,98775.66
2023-05-22T08:48:47.932Z,98774.61
2023-05-22T08:51:15.533Z,98769.46
2023-05-22T08:53:43.013Z,98773.92
2023-05-22T08:56:10.045Z,98774.63
2023-05-22T08:58:37.729Z,98772.08
2023-05-22T09:01:05.582Z,98769.36
2023-05-22T09:03:33.412Z,98770.23
2023-05-22T09:06:04.276Z,98773.35
2023-05-22T09:08:33.382Z,98765.92
2023-05-22T09:11:00.520Z,98764.89
2023-05-22T09:13:31.535Z,98765.49
2023-05-22T09:16:00.806Z,98769.81
2023-05-22T09:18:28.996Z,98769.02
2023-05-22T09:20:59.351Z,98766.36
2023-05-22T13:43:28.499Z,98571.69
2023-05-22T13:45:55.829Z,98561.68
2023-05-22T13:48:23.421Z,98559.80
2023-05-22T13:50:50.565Z,98558.16
2023-05-22T13:53:18.495Z,98556.67
2023-05-22T13:55:45.578Z,98559.17
2023-05-22T13:58:12.667Z,98559.05
2023-05-22T14:00:39.880Z,98550.60
2023-05-22T14:03:07.129Z,98544.81
2023-05-22T14:05:34.542Z,98547.84
2023-05-22T14:08:01.753Z,98550.98
2023-05-22T14:10:29.416Z,98548.35
2023-05-22T14:12:56.604Z,98547.41
2023-05-22T14:15:24.331Z,98543.64
2023-05-22T14:17:51.439Z,98534.36
2023-05-22T14:20:18.685Z,98534.83
2023-05-22T14:22:57.210Z,98543.70
2023-05-22T14:25:26.309Z,98542.23
2023-05-22T14:27:53.650Z,98539.89
2023-05-22T14:30:20.817Z,98538.91
2023-05-22T14:32:48.899Z,98531.88
2023-05-22T14:35:16.827Z,98533.12
2023-05-22T14:37:44.097Z,98532.85
2023-05-22T14:40:11.316Z,98529.44
2023-05-22T14:42:39.019Z,98529.50
2023-05-22T14:45:06.520Z,98527.73
2023-05-22T14:47:34.263Z,98527.89
2023-05-22T14:50:14.675Z,98525.77
2023-05-22T14:52:46.518Z,98526.56
2023-05-22T14:55:13.593Z,98520.34
2023-05-22T14:57:40.532Z,98523.99
2023-05-22T15:00:09.894Z,98518.70
2023-05-22T15:02:39.281Z,98520.64
2023-05-22T15:05:07.364Z,98520.89
2023-05-22T15:07:43.912Z,98517.73
2023-05-22T15:10:13.066Z,98521.30
2023-05-22T15:12:40.968Z,98520.83
2023-05-22T15:15:08.795Z,98516.30
2023-05-22T15:17:36.324Z,98516.33
2023-05-22T15:20:05.491Z,98516.04
2023-05-22T15:22:33.355Z,98512.21
2023-05-22T15:25:18.676Z,98509.84
2023-05-22T15:27:45.929Z,98509.71
2023-05-22T15:30:13.215Z,98507.16
2023-05-22T15:32:40.671Z,98506.65
2023-05-22T15:35:10.226Z,98507.66
2023-05-22T15:37:38.188Z,98504.88
2023-05-22T15:40:06.247Z,98498.70
2023-05-22T15:42:33.772Z,98497.86
2023-05-22T15:45:01.207Z,98497.94
2023-05-22T15:47:29.241Z,98494.14
2023-05-22T15:49:56.271Z,98491.23
2023-05-22T15:52:24.654Z,98493.02
2023-05-22T15:54:56.991Z,98492.39
2023-05-22T15:57:26.392Z,98488.52
2023-05-22T15:59:53.348Z,98487.19
2023-05-22T16:02:20.299Z,98481.89
2023-05-22T16:04:47.387Z,98478.02
2023-05-22T16:07:14.625Z,98474.89
2023-05-22T16:09:43.405Z,98475.63
2023-05-22T16:12:12.998Z,98473.00
2023-05-22T16:14:41.849Z,98474.00
2023-05-22T16:17:08.961Z,98477.16
2023-05-22T16:19:36.201Z,98481.02
2023-05-22T16:22:03.862Z,98480.80
2023-05-22T16:24:31.096Z,98479.40
2023-05-22T16:26:59.280Z,98479.33
2023-05-22T16:29:26.234Z,98479.33
2023-05-22T16:31:53.322Z,98483.35
2023-05-22T16:34:20.621Z,98483.16
2023-05-22T16:36:47.666Z,98485.23
2023-05-22T16:39:15.642Z,98486.49
2023-05-22T16:41:42.744Z,98487.33
2023-05-22T16:44:09.877Z,98485.98
2023-05-22T16:46:36.916Z,98485.11
2023-05-22T16:49:04.162Z,98487.44
2023-05-22T16:51:31.443Z,98488.89
2023-05-22T16:53:58.627Z,98486.80
2023-05-22T16:56:26.127Z,98489.11
2023-05-22T16:58:53.422Z,98489.33
2023-05-22T17:01:22.072Z,98488.00
2023-05-22T17:03:49.725Z,98492.02
2023-05-22T17:06:19.454Z,98493.33
2023-05-22T17:08:48.007Z,98494.17
2023-05-22T17:11:14.972Z,98491.70
2023-05-22T17:13:42.640Z,98488.95
2023-05-22T17:16:09.808Z,98490.27
2023-05-22T17:18:37.999Z,98488.60
2023-05-22T17:21:05.273Z,98488.98
2023-05-22T17:23:37.023Z,98490.17
2023-05-22T17:26:04.587Z,98490.83
2023-05-22T17:28:32.095Z,98489.34
2023-05-22T17:30:59.457Z,98492.38
2023-05-22T17:33:26.871Z,98489.37
2023-05-22T17:35:54.867Z,98492.73
2023-05-22T17:38:22.102Z,98492.77
2023-05-22T17:40:49.548Z,98494.30
2023-05-22T17:43:19.033Z,98494.11
2023-05-22T17:45:55.210Z,98489.58
2023-05-22T17:48:27.276Z,98488.98
2023-05-22T17:50:54.835Z,98490.05
2023-05-22T17:53:21.983Z,98490.56
2023-05-22T17:55:49.998Z,98491.85
2023-05-22T17:58:17.270Z,98493.46
2023-05-22T18:00:45.761Z,98497.56
2023-05-22T18:03:13.412Z,98496.48
2023-05-22T18:05:41.403Z,98494.48
2023-05-22T18:08:08.822Z,98496.20
2023-05-22T18:10:38.378Z,98499.77
2023-05-22T18:13:06.099Z,98505.34
2023-05-22T18:15:33.493Z,98504.93
2023-05-22T18:18:00.811Z,98508.23
2023-05-22T18:20:29.302Z,98507.42
2023-05-22T18:22:56.681Z,98516.02
2023-05-22T18:25:23.837Z,98516.44
2023-05-22T18:27:50.846Z,98518.52
2023-05-22T18:30:18.068Z,98514.73
2023-05-22T18:32:46.214Z,98516.64
2023-05-22T18:35:13.393Z,98518.98
2023-05-22T18:37:40.717Z,98520.35
2023-05-22T18:40:09.579Z,98523.20
2023-05-22T18:42:39.156Z,98520.29
2023-05-22T18:45:08.968Z,98520.71
2023-05-22T18:47:38.215Z,98519.67
2023-05-22T18:50:05.960Z,98516.66
2023-05-22T18:52:33.491Z,98516.63
2023-05-22T18:55:00.571Z,98517.63
2023-05-22T18:57:27.591Z,98520.90
2023-05-22T18:59:55.901Z,98517.81
2023-05-22T19:02:23.109Z,98520.07
2023-05-22T19:04:50.641Z,98524.07
2023-05-22T19:07:17.761Z,98525.08
2023-05-22T19:09:44.888Z,98524.77
2023-05-22T19:12:11.956Z,98527.94
2023-05-22T19:14:39.983Z,98529.49
2023-05-22T19:17:07.249Z,98530.95
2023-05-22T19:19:34.474Z,98533.60
2023-05-22T19:22:01.570Z,98534.66
2023-05-22T19:24:28.989Z,98533.86
2023-05-22T19:26:56.098Z,98536.73
2023-05-22T19:29:23.544Z,98536.38
2023-05-22T19:31:50.667Z,98537.67
2023-05-22T19:34:17.715Z,98536.83
2023-05-22T19:36:44.859Z,98534.32
2023-05-22T19:39:12.162Z,98534.37
2023-05-22T19:41:39.267Z,98536.91
2023-05-22T19:44:07.130Z,98540.75
2023-05-22T19:46:34.815Z,98538.67
2023-05-22T19:49:04.913Z,98541.55
2023-05-22T19:51:32.485Z,98545.89
2023-05-22T19:53:59.805Z,98547.06
2023-05-22T19:56:27.250Z,98551.86
2023-05-22T19:58:54.310Z,98549.45
2023-05-22T20:01:21.593Z,98551.80
2023-05-22T20:03:49.886Z,98555.43
2023-05-22T20:06:19.093Z,98552.11
2023-05-22T20:08:46.382Z,98552.08
2023-05-22T20:11:13.541Z,98554.88
2023-05-22T20:13:40.811Z,98555.54
2023-05-22T20:16:11.997Z,98552.27
2023-05-22T20:18:41.090Z,98553.86
2023-05-22T20:21:09.814Z,98550.00
2023-05-22T20:23:37.316Z,98551.89
2023-05-22T20:26:05.586Z,98551.98
2023-05-22T20:28:32.659Z,98552.86
2023-05-22T20:30:59.706Z,98552.98
2023-05-22T20:33:27.883Z,98550.28
2023-05-22T20:35:54.982Z,98549.77
2023-05-22T20:38:22.628Z,98549.77
2023-05-22T20:40:50.077Z,98549.48
2023-05-22T20:43:18.660Z,98546.98
2023-05-22T20:45:46.813Z,98549.04
2023-05-22T20:48:15.082Z,98549.38
2023-05-22T20:50:42.559Z,98541.50
2023-05-22T20:53:09.778Z,98540.63
2023-05-22T20:55:37.200Z,98542.66
2023-05-22T20:58:04.341Z,98542.60
2023-05-22T21:00:31.415Z,98540.60
2023-05-22T21:02:59.691Z,98536.86
2023-05-22T21:05:26.927Z,98537.20
2023-05-22T21:07:55.715Z,98536.30
2023-05-22T21:10:23.357Z,98535.51
2023-05-22T21:12:50.696Z,98531.60
2023-05-22T21:15:17.987Z,98530.81
2023-05-22T21:17:45.628Z,98532.71
2023-05-22T21:20:12.693Z,98532.82
2023-05-22T21:22:39.739Z,98533.41
2023-05-22T21:25:07.584Z,98532.90
2023-05-22T21:27:34.637Z,98530.25
2023-05-22T21:30:01.834Z,98530.87
2023-05-22T21:32:31.007Z,98531.08
2023-05-22T21:34:58.140Z,98537.52
2023-05-22T21:37:25.727Z,98538.08
2023-05-22T21:39:52.948Z,98534.79
2023-05-22T21:42:21.344Z,98533.72
2023-05-22T21:44:48.554Z,98533.02
2023-05-22T21:47:15.610Z,98533.73
2023-05-22T21:49:42.690Z,98535.91
2023-05-22T21:52:09.953Z,98530.06
2023-05-22T21:54:39.547Z,98529.16
2023-05-22T21:57:07.069Z,98529.10
2023-05-22T21:59:34.506Z,98524.95
2023-05-22T22:02:01.724Z,98524.63
2023-05-22T22:04:29.075Z,98524.99
2023-05-22T22:06:56.220Z,98522.38
2023-05-22T22:09:23.234Z,98524.71
2023-05-22T22:11:50.805Z,98521.94
2023-05-22T22:14:18.037Z,98519.21
2023-05-22T22:16:45.605Z,98514.45
2023-05-22T22:19:12.956Z,98520.16
2023-05-22T22:21:40.126Z,98519.13
2023-05-22T22:24:07.257Z,98519.75
2023-05-22T22:26:35.717Z,98520.41
2023-05-22T22:29:02.823Z,98520.25
2023-05-22T22:31:30.071Z,98517.33
2023-05-22T22:33:57.982Z,98518.39
2023-05-22T22:36:25.097Z,98518.66
2023-05-22T22:38:52.059Z,98518.71
2023-05-22T22:41:19.182Z,98521.38
2023-05-22T22:43:46.835Z,98521.10
2023-05-22T22:46:14.175Z,98520.55
2023-05-22T22:48:41.859Z,98519.32
2023-05-22T22:51:09.890Z,98519.05
2023-05-22T22:53:37.374Z,98516.06
2023-05-22T22:56:04.561Z,98515.88
2023-05-22T22:58:32.576Z,98515.52
2023-05-22T23:00:59.776Z,98514.45
2023-05-22T23:03:27.579Z,98517.79
2023-05-22T23:05:54.647Z,98514.76
2023-05-22T23:08:21.648Z,98515.36
2023-05-22T23:10:48.727Z,98512.06
2023-05-22T23:13:16.229Z,98514.87
2023-05-22T23:15:43.689Z,98509.85
2023-05-22T23:18:13.699Z,98504.25
2023-05-22T23:20:40.960Z,98501.41
2023-05-22T23:23:08.083Z,98498.77
2023-05-22T23:25:35.172Z,98501.48
2023-05-22T23:28:02.358Z,98501.07
2023-05-22T23:30:30.175Z,98501.55
2023-05-22T23:32:57.342Z,98498.27
2023-05-22T23:35:24.520Z,98495.54
2023-05-22T23:37:51.646Z,98495.85
2023-05-22T23:40:18.866Z,98497.40
2023-05-22T23:42:46.185Z,98493.95
2023-05-22T23:45:13.377Z,98492.45
2023-05-22T23:47:40.926Z,98491.86
2023-05-22T23:50:11.224Z,98488.02
2023-05-22T23:52:39.214Z,98486.83
2023-05-22T23:55:07.075Z,98482.04
2023-05-22T23:57:34.293Z,98479.42
